createdAt,value
2019-01-10T00:00:20.873Z,2.27
2019-01-10T00:01:20.964Z,2.27
2019-01-10T00:02:20.884Z,2.35
2019-01-10T00:03:20.883Z,2.25
2019-01-10T00:04:20.893Z,2.23
2019-01-10T00:05:20.898Z,2.20
2019-01-10T00:06:20.910Z,2.25
2019-01-10T00:07:20.920Z,2.16
2019-01-10T00:08:20.926Z,2.16
2019-01-10T00:09:20.939Z,2.16
2019-01-10T00:10:20.949Z,2.12
2019-01-10T00:11:20.953Z,2.10
2019-01-10T00:12:20.963Z,2.10
2019-01-10T00:13:20.972Z,2.09
2019-01-10T00:14:20.978Z,2.09
2019-01-10T00:15:20.988Z,2.14
2019-01-10T00:16:21.000Z,2.14
2019-01-10T00:17:21.010Z,2.09
2019-01-10T00:18:21.022Z,2.17
2019-01-10T00:19:21.024Z,2.09
2019-01-10T00:20:21.037Z,2.10
2019-01-10T00:21:21.041Z,2.07
2019-01-10T00:22:21.052Z,2.12
2019-01-10T00:23:21.061Z,2.18
2019-01-10T00:24:21.071Z,2.06
2019-01-10T00:25:21.078Z,2.07
2019-01-10T00:26:21.088Z,2.09
2019-01-10T00:27:21.107Z,2.09
2019-01-10T00:29:21.115Z,1.99
2019-01-10T00:30:21.121Z,2.03
2019-01-10T00:31:21.149Z,1.98
2019-01-10T00:32:21.146Z,2.05
2019-01-10T00:33:21.152Z,1.98
2019-01-10T00:34:21.160Z,1.99
2019-01-10T00:35:21.167Z,1.93
2019-01-10T00:36:21.183Z,2.00
2019-01-10T00:37:21.183Z,2.05
2019-01-10T00:38:21.200Z,1.99
2019-01-10T00:39:21.205Z,2.02
2019-01-10T00:40:21.212Z,2.00
2019-01-10T00:41:21.222Z,1.99
2019-01-10T00:42:21.230Z,1.99
2019-01-10T00:43:21.238Z,1.99
2019-01-10T00:44:21.252Z,2.00
2019-01-10T00:45:21.568Z,2.00
2019-01-10T00:46:21.270Z,2.06
2019-01-10T00:47:21.274Z,1.99
2019-01-10T00:48:21.285Z,2.00
2019-01-10T00:49:21.290Z,1.98
2019-01-10T00:50:21.305Z,1.99
2019-01-10T00:51:21.309Z,1.91
2019-01-10T00:52:21.326Z,2.00
2019-01-10T00:53:21.328Z,1.99
2019-01-10T00:54:21.337Z,2.00
2019-01-10T00:55:21.343Z,2.00
2019-01-10T00:56:21.357Z,2.03
2019-01-10T00:57:21.363Z,1.98
2019-01-10T00:58:21.374Z,2.00
2019-01-10T00:59:21.381Z,1.99
2019-01-10T01:00:21.390Z,1.98
2019-01-10T01:01:21.398Z,1.95
2019-01-10T01:02:21.411Z,2.03
2019-01-10T01:03:21.418Z,2.05
2019-01-10T01:04:21.437Z,1.86
2019-01-10T01:05:21.435Z,1.93
2019-01-10T01:06:21.448Z,1.99
2019-01-10T01:07:21.455Z,1.99
2019-01-10T01:08:21.459Z,1.93
2019-01-10T01:09:21.469Z,2.00
2019-01-10T01:10:21.498Z,1.99
2019-01-10T01:11:21.490Z,2.02
2019-01-10T01:12:21.497Z,2.02
2019-01-10T01:13:21.508Z,2.03
2019-01-10T01:14:21.516Z,2.00
2019-01-10T01:15:21.520Z,2.00
2019-01-10T01:16:21.534Z,2.02
2019-01-10T01:17:21.541Z,1.98
2019-01-10T01:18:21.551Z,1.99
2019-01-10T01:19:21.589Z,2.00
2019-01-10T01:20:21.567Z,2.00
2019-01-10T01:21:21.576Z,1.95
2019-01-10T01:22:21.591Z,1.98
2019-01-10T01:23:21.595Z,1.87
2019-01-10T01:24:21.605Z,1.81
2019-01-10T01:25:21.610Z,1.90
2019-01-10T01:26:21.621Z,2.05
2019-01-10T01:27:21.631Z,2.02
2019-01-10T01:28:21.642Z,2.03
2019-01-10T01:29:21.652Z,1.99
2019-01-10T01:30:21.657Z,2.02
2019-01-10T01:31:21.665Z,1.99
2019-01-10T01:32:21.681Z,1.95
2019-01-10T01:33:21.687Z,2.03
2019-01-10T01:34:21.710Z,1.95
2019-01-10T01:35:21.830Z,2.00
2019-01-10T01:36:21.711Z,2.00
2019-01-10T01:37:21.722Z,1.99
2019-01-10T01:38:21.728Z,2.06
2019-01-10T01:39:21.736Z,1.93
2019-01-10T01:40:21.744Z,2.06
2019-01-10T01:41:21.751Z,2.05
2019-01-10T01:42:21.765Z,2.02
2019-01-10T01:43:21.777Z,1.95
2019-01-10T01:44:21.787Z,1.95
2019-01-10T01:45:21.790Z,1.93
2019-01-10T01:46:21.801Z,1.98
2019-01-10T01:47:21.835Z,1.99
2019-01-10T01:48:21.817Z,2.00
2019-01-10T01:49:21.826Z,1.95
2019-01-10T01:50:21.837Z,2.09
2019-01-10T01:51:21.844Z,2.06
2019-01-10T01:52:21.855Z,1.98
2019-01-10T01:53:21.862Z,2.02
2019-01-10T01:54:21.874Z,2.03
2019-01-10T01:55:21.944Z,2.03
2019-01-10T01:56:21.889Z,2.02
2019-01-10T01:57:21.897Z,2.05
2019-01-10T01:58:21.910Z,1.99
2019-01-10T01:59:21.915Z,1.99
2019-01-10T02:00:21.925Z,1.99
2019-01-10T02:01:21.932Z,1.90
2019-01-10T02:02:21.947Z,1.98
2019-01-10T02:03:21.952Z,2.00
2019-01-10T02:04:21.959Z,2.02
2019-01-10T02:05:21.965Z,2.00
2019-01-10T02:06:21.977Z,2.02
2019-01-10T02:07:21.988Z,2.03
2019-01-10T02:08:22.006Z,2.00
2019-01-10T02:09:22.002Z,2.05
2019-01-10T02:10:22.020Z,2.02
2019-01-10T02:11:22.035Z,2.02
2019-01-10T02:12:22.029Z,1.95
2019-01-10T02:13:22.040Z,2.05
2019-01-10T02:14:22.047Z,1.93
2019-01-10T02:15:22.059Z,1.99
2019-01-10T02:16:22.066Z,2.02
2019-01-10T02:17:22.080Z,2.02
2019-01-10T02:18:22.102Z,1.95
2019-01-10T02:19:22.191Z,1.98
2019-01-10T02:20:22.102Z,1.98
2019-01-10T02:21:22.109Z,1.93
2019-01-10T02:22:22.118Z,2.00
2019-01-10T02:23:22.130Z,2.10
2019-01-10T02:24:22.136Z,1.99
2019-01-10T02:25:22.149Z,1.98
2019-01-10T02:26:22.156Z,1.99
2019-01-10T02:27:22.168Z,1.98
2019-01-10T02:28:22.174Z,2.06
2019-01-10T02:29:22.180Z,2.00
2019-01-10T02:30:22.189Z,2.03
2019-01-10T02:31:22.203Z,1.99
2019-01-10T02:32:22.214Z,1.98
2019-01-10T02:33:22.247Z,2.00
2019-01-10T02:34:22.226Z,2.02
2019-01-10T02:35:22.244Z,2.03
2019-01-10T02:36:22.244Z,2.03
2019-01-10T02:37:22.291Z,1.98
2019-01-10T02:38:22.269Z,2.05
2019-01-10T02:39:22.272Z,1.93
2019-01-10T02:40:22.280Z,2.00
2019-01-10T02:41:22.307Z,2.03
2019-01-10T02:42:22.312Z,1.99
2019-01-10T02:43:26.688Z,2.00
2019-01-10T02:44:22.318Z,1.99
2019-01-10T02:45:22.332Z,2.02
2019-01-10T02:46:22.334Z,2.00
2019-01-10T02:47:22.340Z,2.00
2019-01-10T02:48:22.350Z,1.98
2019-01-10T02:49:22.371Z,2.00
2019-01-10T02:50:22.420Z,2.02
2019-01-10T02:51:22.378Z,2.03
2019-01-10T02:52:22.386Z,2.02
2019-01-10T02:53:22.394Z,1.93
2019-01-10T02:54:22.705Z,2.09
2019-01-10T02:55:22.416Z,2.10
2019-01-10T02:56:22.425Z,1.99
2019-01-10T02:57:22.429Z,2.00
2019-01-10T02:58:22.440Z,2.02
2019-01-10T02:59:22.454Z,2.05
2019-01-10T03:00:22.470Z,2.00
2019-01-10T03:01:22.474Z,1.98
2019-01-10T03:02:22.474Z,2.00
2019-01-10T03:03:22.484Z,1.99
2019-01-10T03:04:22.494Z,1.99
2019-01-10T03:05:22.498Z,2.06
2019-01-10T03:06:22.511Z,2.09
2019-01-10T03:07:22.519Z,2.09
2019-01-10T03:08:22.541Z,2.06
2019-01-10T03:09:23.232Z,2.03
2019-01-10T03:10:22.543Z,2.03
2019-01-10T03:11:22.552Z,1.91
2019-01-10T03:12:22.567Z,2.03
2019-01-10T03:13:22.575Z,1.98
2019-01-10T03:14:22.595Z,2.00
2019-01-10T03:15:22.590Z,1.99
2019-01-10T03:16:22.596Z,2.00
2019-01-10T03:17:22.605Z,1.98
2019-01-10T03:18:22.616Z,2.00
2019-01-10T03:19:22.635Z,1.98
2019-01-10T03:20:22.638Z,2.00
2019-01-10T03:21:22.643Z,2.00
2019-01-10T03:22:22.656Z,1.98
2019-01-10T03:23:22.668Z,2.03
2019-01-10T03:24:22.681Z,1.98
2019-01-10T03:25:22.693Z,1.99
2019-01-10T03:26:22.685Z,1.93
2019-01-10T03:27:22.723Z,2.03
2019-01-10T03:28:22.721Z,2.05
2019-01-10T03:29:22.715Z,2.02
2019-01-10T03:30:22.726Z,2.02
2019-01-10T03:31:22.738Z,1.99
2019-01-10T03:32:22.755Z,2.02
2019-01-10T03:33:22.758Z,2.02
2019-01-10T03:34:22.760Z,1.90
2019-01-10T03:35:22.784Z,1.98
2019-01-10T03:36:22.776Z,2.00
2019-01-10T03:37:22.789Z,2.02
2019-01-10T03:38:22.793Z,1.98
2019-01-10T03:39:22.804Z,2.00
2019-01-10T03:40:22.814Z,2.06
2019-01-10T03:41:22.824Z,1.93
2019-01-10T03:42:22.835Z,1.88
2019-01-10T03:43:22.842Z,1.98
2019-01-10T03:44:22.851Z,1.98
2019-01-10T03:45:22.858Z,1.99
2019-01-10T03:46:22.867Z,1.99
2019-01-10T03:47:22.879Z,1.98
2019-01-10T03:48:22.887Z,1.93
2019-01-10T03:49:22.895Z,1.95
2019-01-10T03:50:22.906Z,2.03
2019-01-10T03:51:22.913Z,1.98
2019-01-10T03:52:22.932Z,1.99
2019-01-10T03:53:22.928Z,1.93
2019-01-10T03:54:22.938Z,2.00
2019-01-10T03:55:22.946Z,2.02
2019-01-10T03:56:22.966Z,2.02
2019-01-10T03:57:22.973Z,2.02
2019-01-10T03:58:22.993Z,2.00
2019-01-10T03:59:22.981Z,1.99
2019-01-10T04:00:23.045Z,2.00
2019-01-10T04:01:23.009Z,2.02
2019-01-10T04:02:23.013Z,1.98
2019-01-10T04:03:23.022Z,2.03
2019-01-10T04:04:23.028Z,1.98
2019-01-10T04:05:23.035Z,2.02
2019-01-10T04:06:23.051Z,1.93
2019-01-10T04:07:23.054Z,1.93
2019-01-10T04:08:23.065Z,1.93
2019-01-10T04:09:23.078Z,1.91
2019-01-10T04:10:23.080Z,1.91
2019-01-10T04:11:23.091Z,1.88
2019-01-10T04:12:23.303Z,1.84
2019-01-10T04:13:23.108Z,1.84
2019-01-10T04:14:23.117Z,1.79
2019-01-10T04:15:23.134Z,1.77
2019-01-10T04:16:23.137Z,1.83
2019-01-10T04:17:23.141Z,1.81
2019-01-10T04:18:23.150Z,1.73
2019-01-10T04:19:23.158Z,1.84
2019-01-10T04:20:23.171Z,1.87
2019-01-10T04:21:23.180Z,1.87
2019-01-10T04:22:23.187Z,1.90
2019-01-10T04:23:23.195Z,1.88
2019-01-10T04:24:23.207Z,1.95
2019-01-10T04:25:23.218Z,1.91
2019-01-10T04:26:23.272Z,1.98
2019-01-10T04:27:23.233Z,1.87
2019-01-10T04:28:23.243Z,1.91
2019-01-10T04:29:23.251Z,1.88
2019-01-10T04:30:23.261Z,1.95
2019-01-10T04:31:23.276Z,1.84
2019-01-10T04:32:23.287Z,1.81
2019-01-10T04:33:23.289Z,1.79
2019-01-10T04:34:23.296Z,1.88
2019-01-10T04:35:23.308Z,1.90
2019-01-10T04:37:23.319Z,1.88
2019-01-10T04:38:23.329Z,1.91
2019-01-10T04:39:23.339Z,1.91
2019-01-10T04:40:23.350Z,1.91
2019-01-10T04:41:23.355Z,2.02
2019-01-10T04:42:23.371Z,1.99
2019-01-10T04:43:23.374Z,1.93
2019-01-10T04:44:23.386Z,2.02
2019-01-10T04:45:23.393Z,2.02
2019-01-10T04:46:23.401Z,1.98
2019-01-10T04:47:23.454Z,2.02
2019-01-10T04:48:23.418Z,2.02
2019-01-10T04:49:23.428Z,2.03
2019-01-10T04:50:23.435Z,2.03
2019-01-10T04:51:23.446Z,1.87
2019-01-10T04:52:23.480Z,1.90
2019-01-10T04:53:23.495Z,1.88
2019-01-10T04:54:23.481Z,1.93
2019-01-10T04:55:23.480Z,1.98
2019-01-10T04:56:23.498Z,2.00
2019-01-10T04:57:23.500Z,1.98
2019-01-10T04:59:23.518Z,1.99
2019-01-10T05:00:23.524Z,1.90
2019-01-10T05:01:23.532Z,1.87
2019-01-10T05:02:23.542Z,1.90
2019-01-10T05:03:23.551Z,1.98
2019-01-10T05:04:23.559Z,2.03
2019-01-10T05:05:23.575Z,1.93
2019-01-10T05:06:23.580Z,2.03
2019-01-10T05:07:23.608Z,2.06
2019-01-10T05:08:23.595Z,1.99
2019-01-10T05:09:23.607Z,2.00
2019-01-10T05:10:23.627Z,1.91
2019-01-10T05:11:23.626Z,1.98
2019-01-10T05:12:23.630Z,1.87
2019-01-10T05:13:23.639Z,1.88
2019-01-10T05:14:23.650Z,1.88
2019-01-10T05:15:23.659Z,1.90
2019-01-10T05:16:23.666Z,1.99
2019-01-10T05:17:23.679Z,2.03
2019-01-10T05:18:23.693Z,1.90
2019-01-10T05:19:23.694Z,1.98
2019-01-10T05:20:23.702Z,1.91
2019-01-10T05:21:23.718Z,2.05
2019-01-10T05:22:23.727Z,1.99
2019-01-10T05:23:23.736Z,1.91
2019-01-10T05:24:23.754Z,1.87
2019-01-10T05:25:23.748Z,1.88
2019-01-10T05:26:23.793Z,2.00
2019-01-10T05:27:23.766Z,1.79
2019-01-10T05:28:23.786Z,1.93
2019-01-10T05:29:23.804Z,1.95
2019-01-10T05:30:23.799Z,1.84
2019-01-10T05:31:23.796Z,1.88
2019-01-10T05:32:23.825Z,1.86
2019-01-10T05:33:23.829Z,1.87
2019-01-10T05:34:23.843Z,1.95
2019-01-10T05:35:23.844Z,1.87
2019-01-10T05:36:23.908Z,2.00
2019-01-10T05:37:23.876Z,2.00
2019-01-10T05:38:23.870Z,1.98
2019-01-10T05:39:23.873Z,1.99
2019-01-10T05:40:23.892Z,1.99
2019-01-10T05:41:23.887Z,2.06
2019-01-10T05:42:23.904Z,2.03
2019-01-10T05:43:23.905Z,1.93
2019-01-10T05:44:26.677Z,1.93
2019-01-10T05:45:23.924Z,1.99
2019-01-10T05:46:23.932Z,1.90
2019-01-10T05:47:23.941Z,1.91
2019-01-10T05:48:23.965Z,1.86
2019-01-10T05:49:23.964Z,1.90
2019-01-10T05:50:23.979Z,1.87
2019-01-10T05:51:23.991Z,1.88
2019-01-10T05:52:24.014Z,1.88
2019-01-10T05:53:24.014Z,1.99
2019-01-10T05:54:24.055Z,1.83
2019-01-10T05:55:24.020Z,1.88
2019-01-10T05:56:24.030Z,1.90
2019-01-10T05:57:24.034Z,1.86
2019-01-10T05:58:24.055Z,1.79
2019-01-10T05:59:25.261Z,1.91
2019-01-10T06:00:24.067Z,1.99
2019-01-10T06:01:24.068Z,1.88
2019-01-10T06:02:24.089Z,2.05
2019-01-10T06:03:24.106Z,1.93
2019-01-10T06:04:24.166Z,1.88
2019-01-10T06:05:24.120Z,1.95
2019-01-10T06:06:24.118Z,2.00
2019-01-10T06:07:24.117Z,1.88
2019-01-10T06:08:24.149Z,1.81
2019-01-10T06:09:24.165Z,1.79
2019-01-10T06:10:24.149Z,1.76
2019-01-10T06:11:24.171Z,1.87
2019-01-10T06:12:24.174Z,1.77
2019-01-10T06:13:24.191Z,1.81
2019-01-10T06:14:24.188Z,1.84
2019-01-10T06:15:24.208Z,1.84
2019-01-10T06:16:24.222Z,1.81
2019-01-10T06:17:24.209Z,1.77
2019-01-10T06:18:24.220Z,1.79
2019-01-10T06:19:27.011Z,1.81
2019-01-10T06:20:24.247Z,1.77
2019-01-10T06:21:24.246Z,1.84
2019-01-10T06:22:24.253Z,1.88
2019-01-10T06:23:24.260Z,1.88
2019-01-10T06:24:24.272Z,1.91
2019-01-10T06:25:24.299Z,2.03
2019-01-10T06:26:24.304Z,2.00
2019-01-10T06:27:24.328Z,2.00
2019-01-10T06:28:24.318Z,1.98
2019-01-10T06:29:24.314Z,2.02
2019-01-10T06:30:24.436Z,2.02
2019-01-10T06:31:24.334Z,1.99
2019-01-10T06:32:24.339Z,2.00
2019-01-10T06:33:24.371Z,1.93
2019-01-10T06:34:24.361Z,1.90
2019-01-10T06:35:24.399Z,1.90
2019-01-10T06:36:24.398Z,1.93
2019-01-10T06:37:24.391Z,2.03
2019-01-10T06:38:24.404Z,1.93
2019-01-10T06:39:24.405Z,1.99
2019-01-10T06:40:24.441Z,1.98
2019-01-10T06:41:24.441Z,1.99
2019-01-10T06:42:24.429Z,1.99
2019-01-10T06:43:24.447Z,2.02
2019-01-10T06:44:24.465Z,2.02
2019-01-10T06:45:24.474Z,2.02
2019-01-10T06:46:24.491Z,1.99
2019-01-10T06:47:24.470Z,1.99
2019-01-10T06:48:24.482Z,1.91
2019-01-10T06:49:24.510Z,1.88
2019-01-10T06:50:24.499Z,1.87
2019-01-10T06:51:24.508Z,1.84
2019-01-10T06:52:24.518Z,2.00
2019-01-10T06:53:24.530Z,1.99
2019-01-10T06:54:24.582Z,1.95
2019-01-10T06:55:24.575Z,2.02
2019-01-10T06:56:24.567Z,1.98
2019-01-10T06:57:24.561Z,2.03
2019-01-10T06:58:24.634Z,2.03
2019-01-10T06:59:24.715Z,2.02
2019-01-10T07:00:24.593Z,2.02
2019-01-10T07:01:24.615Z,2.02
2019-01-10T07:02:24.615Z,2.00
2019-01-10T07:03:24.616Z,2.02
2019-01-10T07:04:24.624Z,1.99
2019-01-10T07:05:24.635Z,2.03
2019-01-10T07:06:24.642Z,1.99
2019-01-10T07:07:24.650Z,1.95
2019-01-10T07:08:24.657Z,1.91
2019-01-10T07:09:24.664Z,1.99
2019-01-10T07:10:24.735Z,2.02
2019-01-10T07:11:24.729Z,2.00
2019-01-10T07:12:24.693Z,1.98
2019-01-10T07:13:24.701Z,2.00
2019-01-10T07:14:24.712Z,1.99
2019-01-10T07:15:24.721Z,2.00
2019-01-10T07:16:24.735Z,2.06
2019-01-10T07:17:24.738Z,1.95
2019-01-10T07:18:24.947Z,2.02
2019-01-10T07:19:24.761Z,2.00
2019-01-10T07:20:24.785Z,2.00
2019-01-10T07:21:24.785Z,1.98
2019-01-10T07:22:24.823Z,1.95
2019-01-10T07:23:24.792Z,1.98
2019-01-10T07:24:24.809Z,2.00
2019-01-10T07:25:24.901Z,1.98
2019-01-10T07:26:24.827Z,2.05
2019-01-10T07:27:24.836Z,1.95
2019-01-10T07:28:24.834Z,2.03
2019-01-10T07:29:24.858Z,1.99
2019-01-10T07:30:24.871Z,2.00
2019-01-10T07:31:24.874Z,2.00
2019-01-10T07:32:24.917Z,2.09
2019-01-10T07:33:24.892Z,2.02
2019-01-10T07:34:24.891Z,2.12
2019-01-10T07:35:25.765Z,2.14
2019-01-10T07:36:24.944Z,2.09
2019-01-10T07:37:24.938Z,2.12
2019-01-10T07:38:24.964Z,2.21
2019-01-10T07:39:24.980Z,2.17
2019-01-10T07:40:24.951Z,2.16
2019-01-10T07:41:24.982Z,2.16
2019-01-10T07:42:24.992Z,2.21
2019-01-10T07:43:24.975Z,2.14
2019-01-10T07:44:25.020Z,2.12
2019-01-10T07:45:25.001Z,2.03
2019-01-10T07:46:24.993Z,2.10
2019-01-10T07:47:25.029Z,2.12
2019-01-10T07:48:25.028Z,2.14
2019-01-10T07:49:25.043Z,2.20
2019-01-10T07:50:25.037Z,2.20
2019-01-10T07:51:25.033Z,2.16
2019-01-10T07:52:25.047Z,2.21
2019-01-10T07:53:25.055Z,2.24
2019-01-10T07:54:25.060Z,2.24
2019-01-10T07:55:25.073Z,2.24
2019-01-10T07:56:25.085Z,2.23
2019-01-10T07:57:25.093Z,2.21
2019-01-10T07:58:25.107Z,2.20
2019-01-10T07:59:25.115Z,2.17
2019-01-10T08:00:25.122Z,2.24
2019-01-10T08:01:25.157Z,2.21
2019-01-10T08:02:25.133Z,2.18
2019-01-10T08:03:25.165Z,2.17
2019-01-10T08:04:25.162Z,2.18
2019-01-10T08:06:25.172Z,2.28
2019-01-10T08:07:25.814Z,2.31
2019-01-10T08:08:25.207Z,2.35
2019-01-10T08:09:25.198Z,2.46
2019-01-10T08:10:25.244Z,2.43
2019-01-10T08:11:25.219Z,2.43
2019-01-10T08:12:25.231Z,2.30
2019-01-10T08:13:25.403Z,2.28
2019-01-10T08:14:25.254Z,2.28
2019-01-10T08:15:25.254Z,2.21
2019-01-10T08:16:25.264Z,2.23
2019-01-10T08:17:25.272Z,2.24
2019-01-10T08:18:25.289Z,2.20
2019-01-10T08:19:25.293Z,2.20
2019-01-10T08:20:25.298Z,2.27
2019-01-10T08:21:25.311Z,2.25
2019-01-10T08:22:28.063Z,2.30
2019-01-10T08:23:25.329Z,2.20
2019-01-10T08:24:25.350Z,2.24
2019-01-10T08:25:25.341Z,2.20
2019-01-10T08:26:25.354Z,2.27
2019-01-10T08:27:25.366Z,2.27
2019-01-10T08:28:25.370Z,2.23
2019-01-10T08:29:25.398Z,2.27
2019-01-10T08:30:25.391Z,2.24
2019-01-10T08:31:25.404Z,2.24
2019-01-10T08:32:25.407Z,2.27
2019-01-10T08:33:25.567Z,2.30
2019-01-10T08:34:25.442Z,2.31
2019-01-10T08:35:25.480Z,2.30
2019-01-10T08:36:32.461Z,2.27
2019-01-10T08:37:25.455Z,2.23
2019-01-10T08:38:25.467Z,2.24
2019-01-10T08:39:25.472Z,2.21
2019-01-10T08:40:25.492Z,2.27
2019-01-10T08:41:25.496Z,2.23
2019-01-10T08:42:25.500Z,2.28
2019-01-10T08:43:25.510Z,2.30
2019-01-10T08:44:25.552Z,2.34
2019-01-10T08:45:25.524Z,2.36
2019-01-10T08:46:25.540Z,2.42
2019-01-10T08:47:25.543Z,2.45
2019-01-10T08:48:25.553Z,2.43
2019-01-10T08:49:25.565Z,2.49
2019-01-10T08:50:25.583Z,2.46
2019-01-10T08:51:26.698Z,2.45
2019-01-10T08:52:25.598Z,2.60
2019-01-10T08:53:25.613Z,2.57
2019-01-10T08:54:25.619Z,2.59
2019-01-10T08:55:25.621Z,2.66
2019-01-10T08:56:25.636Z,2.61
2019-01-10T08:57:25.638Z,2.67
2019-01-10T08:58:25.648Z,2.54
2019-01-10T08:59:25.665Z,2.52
2019-01-10T09:00:25.667Z,2.53
2019-01-10T09:01:26.082Z,2.56
2019-01-10T09:02:25.685Z,2.52
2019-01-10T09:03:25.690Z,2.69
2019-01-10T09:04:25.701Z,2.53
2019-01-10T09:05:25.712Z,2.52
2019-01-10T09:06:25.719Z,2.43
2019-01-10T09:07:25.732Z,2.53
2019-01-10T09:08:25.739Z,2.57
2019-01-10T09:09:27.180Z,2.56
2019-01-10T09:10:25.758Z,2.53
2019-01-10T09:11:25.770Z,2.57
2019-01-10T09:12:25.784Z,2.59
2019-01-10T09:13:25.789Z,2.61
2019-01-10T09:14:25.796Z,2.66
2019-01-10T09:15:34.282Z,2.64
2019-01-10T09:16:25.820Z,2.77
2019-01-10T09:17:25.826Z,2.69
2019-01-10T09:18:25.834Z,2.66
2019-01-10T09:19:25.854Z,2.66
2019-01-10T09:20:25.854Z,2.67
2019-01-10T09:21:25.864Z,2.71
2019-01-10T09:22:25.869Z,2.82
2019-01-10T09:23:25.882Z,2.79
2019-01-10T09:24:25.888Z,2.77
2019-01-10T09:25:25.902Z,2.85
2019-01-10T09:26:29.384Z,2.77
2019-01-10T09:27:25.929Z,2.77
2019-01-10T09:28:25.927Z,2.84
2019-01-10T09:29:25.936Z,2.85
2019-01-10T09:30:26.513Z,2.82
2019-01-10T09:31:25.957Z,2.75
2019-01-10T09:32:25.968Z,2.77
2019-01-10T09:33:25.972Z,2.71
2019-01-10T09:34:25.995Z,2.79
2019-01-10T09:35:25.994Z,2.81
2019-01-10T09:36:26.011Z,2.81
2019-01-10T09:37:26.017Z,2.89
2019-01-10T09:38:26.049Z,2.89
2019-01-10T09:39:26.031Z,2.92
2019-01-10T09:40:26.048Z,2.89
2019-01-10T09:41:26.078Z,2.75
2019-01-10T09:42:26.061Z,2.75
2019-01-10T09:43:26.071Z,2.78
2019-01-10T09:44:26.083Z,2.81
2019-01-10T09:45:26.092Z,2.81
2019-01-10T09:46:26.109Z,2.90
2019-01-10T09:47:26.112Z,2.97
2019-01-10T09:48:26.124Z,2.96
2019-01-10T09:49:26.135Z,3.03
2019-01-10T09:50:26.140Z,3.02
2019-01-10T09:51:26.161Z,3.00
2019-01-10T09:52:26.160Z,2.99
2019-01-10T09:53:26.885Z,3.00
2019-01-10T09:54:26.179Z,3.00
2019-01-10T09:55:26.189Z,2.99
2019-01-10T09:56:26.206Z,2.99
2019-01-10T09:57:26.231Z,3.14
2019-01-10T09:58:26.216Z,3.08
2019-01-10T09:59:26.345Z,3.13
2019-01-10T10:00:26.230Z,3.23
2019-01-10T10:01:26.248Z,3.21
2019-01-10T10:02:26.245Z,3.26
2019-01-10T10:03:26.264Z,3.35
2019-01-10T10:04:26.266Z,3.10
2019-01-10T10:05:26.275Z,3.10
2019-01-10T10:06:26.301Z,3.17
2019-01-10T10:07:26.395Z,3.18
2019-01-10T10:08:26.306Z,3.21
2019-01-10T10:09:26.599Z,3.29
2019-01-10T10:10:26.323Z,3.29
2019-01-10T10:11:33.991Z,3.31
2019-01-10T10:12:26.350Z,3.31
2019-01-10T10:13:26.360Z,3.20
2019-01-10T10:14:26.368Z,3.17
2019-01-10T10:15:26.395Z,3.23
2019-01-10T10:16:26.384Z,3.26
2019-01-10T10:17:26.397Z,3.24
2019-01-10T10:18:26.402Z,3.10
2019-01-10T10:19:26.412Z,3.03
2019-01-10T10:20:26.444Z,3.10
2019-01-10T10:21:26.436Z,3.11
2019-01-10T10:22:26.450Z,3.10
2019-01-10T10:23:26.868Z,3.17
2019-01-10T10:24:26.460Z,3.08
2019-01-10T10:25:26.471Z,3.14
2019-01-10T10:26:26.479Z,3.11
2019-01-10T10:27:26.495Z,3.14
2019-01-10T10:28:26.510Z,3.06
2019-01-10T10:29:26.510Z,3.02
2019-01-10T10:30:26.519Z,3.05
2019-01-10T10:31:26.531Z,3.08
2019-01-10T10:32:26.540Z,3.11
2019-01-10T10:33:26.552Z,3.17
2019-01-10T10:34:26.559Z,3.13
2019-01-10T10:35:26.567Z,3.17
2019-01-10T10:36:26.576Z,3.18
2019-01-10T10:37:26.605Z,3.14
2019-01-10T10:38:26.607Z,3.15
2019-01-10T10:39:26.603Z,3.10
2019-01-10T10:40:26.612Z,3.10
2019-01-10T10:41:26.625Z,3.06
2019-01-10T10:42:26.635Z,3.14
2019-01-10T10:43:26.644Z,3.08
2019-01-10T10:44:26.653Z,3.14
2019-01-10T10:45:26.666Z,3.11
2019-01-10T10:46:26.675Z,2.99
2019-01-10T10:47:26.687Z,3.00
2019-01-10T10:48:26.691Z,3.00
2019-01-10T10:49:26.700Z,3.03
2019-01-10T10:50:26.715Z,3.11
2019-01-10T10:51:26.721Z,3.17
2019-01-10T10:52:26.736Z,3.18
2019-01-10T10:53:26.744Z,3.23
2019-01-10T10:54:26.751Z,3.24
2019-01-10T10:55:26.756Z,3.23
2019-01-10T10:56:26.770Z,3.24
2019-01-10T10:57:26.779Z,3.33
2019-01-10T10:58:26.785Z,3.33
2019-01-10T10:59:26.796Z,3.35
2019-01-10T11:00:26.807Z,3.33
2019-01-10T11:01:26.818Z,3.23
2019-01-10T11:02:26.824Z,3.15
2019-01-10T11:03:26.832Z,3.20
2019-01-10T11:04:26.848Z,3.29
2019-01-10T11:05:26.858Z,3.21
2019-01-10T11:06:26.864Z,3.28
2019-01-10T11:07:26.898Z,3.36
2019-01-10T11:08:26.886Z,3.32
2019-01-10T11:09:26.920Z,3.50
2019-01-10T11:10:26.919Z,3.35
2019-01-10T11:11:26.914Z,3.39
2019-01-10T11:12:26.925Z,3.29
2019-01-10T11:13:26.935Z,3.26
2019-01-10T11:14:26.941Z,3.26
2019-01-10T11:15:27.049Z,3.28
2019-01-10T11:16:26.964Z,3.21
2019-01-10T11:17:26.970Z,3.32
2019-01-10T11:18:26.989Z,3.33
2019-01-10T11:19:26.991Z,3.40
2019-01-10T11:20:27.004Z,3.36
2019-01-10T11:21:27.009Z,3.45
2019-01-10T11:22:27.020Z,3.43
2019-01-10T11:23:27.029Z,3.32
2019-01-10T11:24:27.065Z,3.50
2019-01-10T11:25:27.060Z,3.51
2019-01-10T11:26:27.072Z,3.57
2019-01-10T11:27:27.081Z,3.65
2019-01-10T11:28:27.079Z,3.66
2019-01-10T11:29:27.094Z,3.65
2019-01-10T11:30:27.097Z,3.66
2019-01-10T11:31:27.123Z,3.58
2019-01-10T11:32:27.128Z,3.58
2019-01-10T11:33:27.130Z,3.66
2019-01-10T11:34:27.139Z,3.61
2019-01-10T11:35:27.157Z,3.54
2019-01-10T11:36:27.159Z,3.58
2019-01-10T11:37:27.170Z,3.58
2019-01-10T11:38:27.179Z,3.55
2019-01-10T11:39:27.194Z,3.68
2019-01-10T11:40:27.216Z,3.75
2019-01-10T11:41:27.222Z,3.65
2019-01-10T11:42:27.224Z,3.51
2019-01-10T11:43:27.232Z,3.61
2019-01-10T11:44:27.240Z,3.69
2019-01-10T11:45:27.251Z,3.73
2019-01-10T11:46:27.261Z,3.78
2019-01-10T11:47:27.268Z,3.66
2019-01-10T11:48:27.278Z,3.68
2019-01-10T11:49:27.299Z,3.70
2019-01-10T11:50:27.303Z,3.70
2019-01-10T11:51:27.315Z,3.76
2019-01-10T11:52:27.320Z,3.84
2019-01-10T11:53:35.234Z,3.87
2019-01-10T11:54:27.337Z,3.84
2019-01-10T11:55:27.346Z,3.83
2019-01-10T11:56:27.363Z,3.79
2019-01-10T11:57:28.149Z,3.66
2019-01-10T11:58:27.381Z,3.75
2019-01-10T11:59:27.387Z,3.73
2019-01-10T12:00:27.401Z,3.75
2019-01-10T12:01:27.405Z,3.76
2019-01-10T12:02:36.105Z,3.80
2019-01-10T12:03:27.435Z,3.90
2019-01-10T12:04:27.445Z,3.88
2019-01-10T12:05:27.447Z,3.90
2019-01-10T12:06:27.456Z,3.98
2019-01-10T12:07:27.482Z,3.96
2019-01-10T12:08:27.481Z,4.05
2019-01-10T12:09:27.489Z,4.04
2019-01-10T12:10:27.499Z,3.91
2019-01-10T12:11:27.508Z,3.88
2019-01-10T12:12:27.520Z,3.90
2019-01-10T12:13:27.530Z,3.88
2019-01-10T12:14:27.542Z,3.86
2019-01-10T12:15:27.552Z,3.83
2019-01-10T12:16:28.601Z,3.75
2019-01-10T12:17:27.573Z,3.76
2019-01-10T12:18:27.581Z,3.96
2019-01-10T12:19:27.588Z,3.87
2019-01-10T12:20:27.602Z,4.00
2019-01-10T12:21:27.613Z,4.02
2019-01-10T12:22:27.625Z,3.87
2019-01-10T12:23:27.657Z,3.86
2019-01-10T12:24:27.645Z,3.86
2019-01-10T12:25:27.668Z,3.93
2019-01-10T12:26:27.665Z,3.96
2019-01-10T12:27:27.692Z,3.93
2019-01-10T12:28:27.681Z,3.90
2019-01-10T12:29:35.939Z,3.84
2019-01-10T12:30:27.704Z,3.96
2019-01-10T12:31:27.714Z,4.02
2019-01-10T12:32:27.730Z,4.02
2019-01-10T12:33:27.732Z,4.06
2019-01-10T12:34:27.745Z,4.11
2019-01-10T12:35:27.754Z,4.12
2019-01-10T12:36:27.768Z,4.05
2019-01-10T12:37:27.778Z,4.12
2019-01-10T12:38:27.816Z,4.06
2019-01-10T12:39:27.797Z,4.00
2019-01-10T12:40:27.806Z,4.04
2019-01-10T12:41:27.814Z,4.06
2019-01-10T12:42:27.826Z,4.08
2019-01-10T12:43:27.859Z,4.11
2019-01-10T12:44:27.845Z,4.09
2019-01-10T12:45:27.859Z,4.00
2019-01-10T12:46:27.872Z,4.08
2019-01-10T12:47:27.887Z,4.11
2019-01-10T12:48:27.886Z,4.09
2019-01-10T12:49:27.895Z,4.06
2019-01-10T12:50:27.906Z,4.08
2019-01-10T12:51:27.925Z,4.04
2019-01-10T12:52:35.091Z,3.94
2019-01-10T12:53:28.002Z,3.88
2019-01-10T12:54:30.536Z,3.98
2019-01-10T12:55:27.960Z,3.94
2019-01-10T12:56:27.973Z,3.96
2019-01-10T12:57:27.980Z,3.98
2019-01-10T12:58:27.988Z,3.96
2019-01-10T12:59:28.515Z,3.91
2019-01-10T13:00:28.015Z,3.87
2019-01-10T13:01:28.021Z,3.93
2019-01-10T13:02:28.032Z,3.97
2019-01-10T13:03:28.040Z,3.93
2019-01-10T13:04:28.051Z,3.88
2019-01-10T13:05:28.064Z,3.96
2019-01-10T13:06:28.083Z,3.88
2019-01-10T13:07:28.084Z,3.98
2019-01-10T13:08:28.095Z,3.88
2019-01-10T13:09:28.102Z,4.05
2019-01-10T13:10:28.114Z,4.12
2019-01-10T13:11:28.122Z,4.11
2019-01-10T13:12:28.133Z,4.16
2019-01-10T13:13:28.146Z,4.24
2019-01-10T13:14:28.151Z,4.26
2019-01-10T13:15:28.163Z,4.27
2019-01-10T13:16:28.178Z,4.27
2019-01-10T13:17:28.215Z,4.42
2019-01-10T13:18:28.209Z,4.40
2019-01-10T13:19:28.258Z,4.40
2019-01-10T13:20:28.227Z,4.42
2019-01-10T13:21:28.272Z,4.29
2019-01-10T13:22:28.265Z,4.22